createdAt,value
2017-12-21T00:00:37.212Z,3.3
2017-12-21T00:01:56.963Z,3.3
2017-12-21T00:03:16.720Z,3.3
2017-12-21T00:04:36.446Z,3.3
2017-12-21T00:05:56.153Z,3.6
2017-12-21T00:07:23.477Z,3.4
2017-12-21T00:08:53.375Z,3.4
2017-12-21T00:10:15.611Z,3.5
2017-12-21T00:11:35.321Z,3.3
2017-12-21T00:12:57.609Z,3.1
2017-12-21T00:14:27.453Z,2.8
2017-12-21T00:15:52.215Z,3.3
2017-12-21T00:17:17.030Z,3.4
2017-12-21T00:18:39.284Z,3.4
2017-12-21T00:19:59.076Z,3.5
2017-12-21T00:21:23.879Z,3.5
2017-12-21T00:22:46.128Z,3.3
2017-12-21T00:24:10.936Z,3.6
2017-12-21T00:25:35.722Z,3.6
2017-12-21T00:26:55.421Z,3.3
2017-12-21T00:28:17.678Z,3.5
2017-12-21T00:29:39.928Z,3.1
2017-12-21T00:31:02.162Z,3.6
2017-12-21T00:32:26.999Z,3.7
2017-12-21T00:33:51.771Z,3.7
2017-12-21T00:35:16.559Z,3.7
2017-12-21T00:36:43.871Z,3.7
2017-12-21T00:38:06.145Z,3.7
2017-12-21T00:39:38.490Z,3.7
2017-12-21T00:40:58.204Z,3.6
2017-12-21T00:42:20.452Z,3.8
2017-12-21T00:43:40.178Z,3.8
2017-12-21T00:45:02.409Z,3.8
2017-12-21T00:46:34.805Z,3.7
2017-12-21T00:47:54.578Z,3.5
2017-12-21T00:49:14.343Z,3.9
2017-12-21T00:50:41.726Z,3.8
2017-12-21T00:52:01.460Z,3.7
2017-12-21T00:53:23.725Z,3.2
2017-12-21T00:54:45.963Z,3.2
2017-12-21T00:56:05.663Z,3.3
2017-12-21T00:57:25.425Z,3.9
2017-12-21T00:58:45.158Z,3.9
2017-12-21T01:00:07.395Z,3.9
2017-12-21T01:01:29.660Z,3.9
2017-12-21T01:02:49.405Z,3.4
2017-12-21T01:04:19.269Z,3.6
2017-12-21T01:05:51.706Z,3.9
2017-12-21T01:07:11.396Z,4
2017-12-21T01:08:33.643Z,4
2017-12-21T01:10:00.995Z,3.4
2017-12-21T01:11:23.238Z,4
2017-12-21T01:12:45.466Z,4
2017-12-21T01:14:05.217Z,3.4
2017-12-21T01:15:24.982Z,3.3
2017-12-21T01:16:44.763Z,3.8
2017-12-21T01:18:09.615Z,3.9
2017-12-21T01:19:31.855Z,3.5
2017-12-21T01:20:51.577Z,3.7
2017-12-21T01:22:13.822Z,3.6
2017-12-21T01:23:33.585Z,3.6
2017-12-21T01:24:55.839Z,3.4
2017-12-21T01:26:15.586Z,3.7
2017-12-21T01:27:35.294Z,3.7
2017-12-21T01:28:55.026Z,3.7
2017-12-21T01:30:17.268Z,3.7
2017-12-21T01:31:37.048Z,3.8
2017-12-21T01:32:56.744Z,3.7
2017-12-21T01:34:16.457Z,3.5
2017-12-21T01:35:36.171Z,3.5
2017-12-21T01:37:00.971Z,3.6
2017-12-21T01:38:25.762Z,3.6
2017-12-21T01:39:50.568Z,3.6
2017-12-21T01:41:10.288Z,3.6
2017-12-21T01:42:45.267Z,3.6
2017-12-21T01:44:04.969Z,3.6
2017-12-21T01:45:24.737Z,3.6
2017-12-21T01:46:54.603Z,3.6
2017-12-21T01:48:29.542Z,3.6
2017-12-21T01:49:49.276Z,3.6
2017-12-21T01:51:09.055Z,3.7
2017-12-21T01:52:28.772Z,3.6
2017-12-21T01:53:51.072Z,3.7
2017-12-21T01:55:13.355Z,3.3
2017-12-21T01:56:33.054Z,3.5
2017-12-21T01:57:52.815Z,3.3
2017-12-21T01:59:12.543Z,3.6
2017-12-21T02:00:32.236Z,3.6
2017-12-21T02:01:57.007Z,3.6
2017-12-21T02:03:19.325Z,3.6
2017-12-21T02:04:39.071Z,3.6
2017-12-21T02:05:58.794Z,3.5
2017-12-21T02:07:28.621Z,3.4
2017-12-21T02:08:50.910Z,3.4
2017-12-21T02:10:10.656Z,3.4
2017-12-21T02:11:30.356Z,3.5
2017-12-21T02:12:55.121Z,3.6
2017-12-21T02:14:17.367Z,3.6
2017-12-21T02:15:44.684Z,3.6
2017-12-21T02:17:06.929Z,3.6
2017-12-21T02:18:29.199Z,3.6
2017-12-21T02:19:48.944Z,3.7
2017-12-21T02:21:13.756Z,3.6
2017-12-21T02:22:41.102Z,3.7
2017-12-21T02:24:00.858Z,3.7
2017-12-21T02:25:25.616Z,3.7
2017-12-21T02:26:50.442Z,3.7
2017-12-21T02:28:15.202Z,3.8
2017-12-21T02:29:37.438Z,3.8
2017-12-21T02:30:57.137Z,3.8
2017-12-21T02:32:16.880Z,3.8
2017-12-21T02:33:39.144Z,3.8
2017-12-21T02:34:58.875Z,3.8
2017-12-21T02:36:18.611Z,3.8
2017-12-21T02:37:38.350Z,3.9
2017-12-21T02:39:00.619Z,3.9
2017-12-21T02:40:20.328Z,3.9
2017-12-21T02:41:40.061Z,3.9
2017-12-21T02:43:02.327Z,3.9
2017-12-21T02:44:24.615Z,3.9
2017-12-21T02:45:44.340Z,3.7
2017-12-21T02:47:04.094Z,3.7
2017-12-21T02:48:23.838Z,3.8
2017-12-21T02:49:43.569Z,3.8
2017-12-21T02:51:03.279Z,3.8
2017-12-21T02:52:25.512Z,3.7
2017-12-21T02:53:55.357Z,3.8
2017-12-21T02:55:17.578Z,3.7
2017-12-21T02:56:37.284Z,3.7
2017-12-21T02:57:59.586Z,3.6
2017-12-21T02:59:19.331Z,3.6
2017-12-21T03:00:39.062Z,3.7
2017-12-21T03:02:03.870Z,3.6
2017-12-21T03:03:31.160Z,3.6
2017-12-21T03:04:55.966Z,3.7
2017-12-21T03:06:18.195Z,3.8
2017-12-21T03:07:37.968Z,3.8
2017-12-21T03:09:00.223Z,3.8
2017-12-21T03:10:19.942Z,3.8
2017-12-21T03:11:44.698Z,3.8
2017-12-21T03:13:06.950Z,3.9
2017-12-21T03:14:29.206Z,3.8
2017-12-21T03:15:51.508Z,3.9
2017-12-21T03:17:11.230Z,3.8
2017-12-21T03:18:30.956Z,3.8
2017-12-21T03:19:53.201Z,3.8
2017-12-21T03:21:12.908Z,3.8
2017-12-21T03:22:35.144Z,3.8
2017-12-21T03:24:05.031Z,3.8
2017-12-21T03:25:24.737Z,3.9
2017-12-21T03:26:44.471Z,3.9
2017-12-21T03:28:04.208Z,3.9
2017-12-21T03:29:26.458Z,4
2017-12-21T03:30:46.153Z,3.9
2017-12-21T03:32:05.871Z,4
2017-12-21T03:33:28.136Z,4
2017-12-21T03:34:47.837Z,4
2017-12-21T03:36:20.221Z,4
2017-12-21T03:37:39.946Z,4
2017-12-21T03:39:12.361Z,3.9
2017-12-21T03:40:32.067Z,3.9
2017-12-21T03:41:54.332Z,3.7
2017-12-21T03:43:19.149Z,3.8
2017-12-21T03:44:38.914Z,3.9
2017-12-21T03:45:58.642Z,3.9
2017-12-21T03:47:23.452Z,3.8
2017-12-21T03:48:43.186Z,3.7
2017-12-21T03:50:08.006Z,3.8
2017-12-21T03:51:30.241Z,3.8
2017-12-21T03:52:52.469Z,3.9
2017-12-21T03:54:27.409Z,3.8
2017-12-21T03:55:57.300Z,3.8
2017-12-21T03:57:22.063Z,3.9
2017-12-21T03:58:51.892Z,3.9
2017-12-21T04:00:16.702Z,3.9
2017-12-21T04:01:36.418Z,3.8
2017-12-21T04:02:58.718Z,3.8
2017-12-21T04:04:18.449Z,3.9
2017-12-21T04:05:43.260Z,3.9
2017-12-21T04:07:03.026Z,3.9
2017-12-21T04:08:22.742Z,3.9
2017-12-21T04:09:47.508Z,3.9
2017-12-21T04:11:07.227Z,3.9
2017-12-21T04:12:26.933Z,3.9
2017-12-21T04:13:46.689Z,3.9
2017-12-21T04:15:06.447Z,3.9
2017-12-21T04:16:26.200Z,3.9
2017-12-21T04:17:45.903Z,3.9
2017-12-21T04:19:08.157Z,3.8
2017-12-21T04:20:27.873Z,3.8
2017-12-21T04:21:52.677Z,3.8
2017-12-21T04:23:12.414Z,4
2017-12-21T04:24:32.122Z,4
2017-12-21T04:25:54.358Z,4
2017-12-21T04:27:16.608Z,4
2017-12-21T04:28:36.360Z,4
2017-12-21T04:29:56.054Z,4
2017-12-21T04:31:15.755Z,3.9
2017-12-21T04:32:35.524Z,3.9
2017-12-21T04:34:00.293Z,3.9
2017-12-21T04:35:20.005Z,4
2017-12-21T04:36:42.297Z,4
2017-12-21T04:38:02.006Z,4
2017-12-21T04:39:21.725Z,4.1
2017-12-21T04:40:41.468Z,4.1
2017-12-21T04:42:08.796Z,4.2
2017-12-21T04:43:28.546Z,4.2
2017-12-21T04:44:48.279Z,4.1
2017-12-21T04:46:10.534Z,4.1
2017-12-21T04:47:35.363Z,4.1
2017-12-21T04:48:57.663Z,4.1
2017-12-21T04:50:22.427Z,4.2
2017-12-21T04:51:42.135Z,4.1
2017-12-21T04:53:06.926Z,4.3
2017-12-21T04:54:31.722Z,4.1
2017-12-21T04:55:54.002Z,4.1
2017-12-21T04:57:23.867Z,4.1
2017-12-21T04:58:48.684Z,4.1
2017-12-21T05:00:13.516Z,4.1
2017-12-21T05:01:40.824Z,4.1
2017-12-21T05:03:00.560Z,4.1
2017-12-21T05:04:22.795Z,4.1
2017-12-21T05:05:45.120Z,4.1
2017-12-21T05:07:14.952Z,4.1
2017-12-21T05:08:34.670Z,4.1
2017-12-21T05:09:56.947Z,4.1
2017-12-21T05:11:19.245Z,4.3
2017-12-21T05:12:38.941Z,4.2
2017-12-21T05:14:18.945Z,4.2
2017-12-21T05:15:41.203Z,4.2
2017-12-21T05:17:00.918Z,4.2
2017-12-21T05:18:23.222Z,4.2
2017-12-21T05:19:45.451Z,4.3
2017-12-21T05:21:10.229Z,4.3
2017-12-21T05:22:37.548Z,4.3
2017-12-21T05:23:59.785Z,4.3
2017-12-21T05:25:24.560Z,4.3
2017-12-21T05:26:51.852Z,4.3
2017-12-21T05:28:11.596Z,4.3
2017-12-21T05:29:31.306Z,4.2
2017-12-21T05:31:01.123Z,4.1
2017-12-21T05:32:20.875Z,4.2
2017-12-21T05:33:43.219Z,4.1
2017-12-21T05:35:05.498Z,4.2
2017-12-21T05:36:27.734Z,4.2
2017-12-21T05:37:50.021Z,4.1
2017-12-21T05:39:09.740Z,4.1
2017-12-21T05:40:32.071Z,4.1
2017-12-21T05:41:54.306Z,4.1
2017-12-21T05:43:14.013Z,4.1
2017-12-21T05:44:33.767Z,4.1
2017-12-21T05:45:53.486Z,4.1
2017-12-21T05:47:23.361Z,4.1
2017-12-21T05:48:50.707Z,4
2017-12-21T05:50:18.081Z,4.1
2017-12-21T05:51:37.801Z,4
2017-12-21T05:52:57.530Z,4
2017-12-21T05:54:22.310Z,4.1
2017-12-21T05:55:44.558Z,4.1
2017-12-21T05:57:04.265Z,4.2
2017-12-21T05:58:24.034Z,4.1
2017-12-21T05:59:53.879Z,4.1
2017-12-21T06:01:13.659Z,4.1
2017-12-21T06:02:33.409Z,4
2017-12-21T06:04:00.764Z,4
2017-12-21T06:05:23.023Z,4
2017-12-21T06:06:42.746Z,4.1
2017-12-21T06:08:02.459Z,4.1
2017-12-21T06:09:27.243Z,4.1
2017-12-21T06:10:46.941Z,4.1
2017-12-21T06:12:06.657Z,4.1
2017-12-21T06:13:28.906Z,4.1
2017-12-21T06:14:51.144Z,4.1
2017-12-21T06:16:10.862Z,4.1
2017-12-21T06:17:30.589Z,4.2
2017-12-21T06:18:50.291Z,4.2
2017-12-21T06:20:22.685Z,4.3
2017-12-21T06:21:44.925Z,4.3
2017-12-21T06:23:14.782Z,4.3
2017-12-21T06:24:37.020Z,4.3
2017-12-21T06:25:56.713Z,4.3
2017-12-21T06:27:16.466Z,4.4
2017-12-21T06:28:36.176Z,4.4
2017-12-21T06:29:58.435Z,4.4
2017-12-21T06:31:30.792Z,4.4
2017-12-21T06:32:53.041Z,4.4
2017-12-21T06:34:12.829Z,4.4
2017-12-21T06:35:42.695Z,4.4
2017-12-21T06:37:02.395Z,4.4
2017-12-21T06:38:29.691Z,4.4
2017-12-21T06:39:51.956Z,4.4
2017-12-21T06:41:11.680Z,4.4
2017-12-21T06:42:31.393Z,4.4
2017-12-21T06:43:51.194Z,4.4
2017-12-21T06:45:18.507Z,4.4
2017-12-21T06:46:40.734Z,4.4
2017-12-21T06:48:03.009Z,4.4
2017-12-21T06:49:22.793Z,4.4
2017-12-21T06:50:42.541Z,4.4
2017-12-21T06:52:07.318Z,4.4
2017-12-21T06:53:27.046Z,3.9
2017-12-21T06:54:49.279Z,3.9
2017-12-21T06:56:08.998Z,4.4
2017-12-21T06:57:36.297Z,4.5
2017-12-21T06:59:01.121Z,4.6
2017-12-21T07:00:20.839Z,4.5
2017-12-21T07:01:45.635Z,4.5
2017-12-21T07:03:05.349Z,4.5
2017-12-21T07:04:25.120Z,4.5
2017-12-21T07:05:52.413Z,3.9
2017-12-21T07:07:19.810Z,4.5
2017-12-21T07:08:47.110Z,4
2017-12-21T07:10:11.899Z,4.2
2017-12-21T07:11:39.297Z,4.2
2017-12-21T07:12:59.008Z,4
2017-12-21T07:14:21.233Z,3.9
2017-12-21T07:15:40.947Z,4.1
2017-12-21T07:17:00.647Z,3.7
2017-12-21T07:18:25.453Z,4
2017-12-21T07:19:45.153Z,4
2017-12-21T07:21:12.474Z,3.6
2017-12-21T07:22:32.242Z,3.7
2017-12-21T07:23:51.985Z,3.9
2017-12-21T07:25:14.247Z,3.7
2017-12-21T07:26:36.522Z,4
2017-12-21T07:27:56.268Z,3.9
2017-12-21T07:29:18.537Z,3.9
2017-12-21T07:30:45.816Z,3.9
2017-12-21T07:32:10.599Z,4.1
2017-12-21T07:33:35.352Z,4.5
2017-12-21T07:34:55.094Z,4.5
2017-12-21T07:36:14.814Z,4.3
2017-12-21T07:37:42.114Z,4.2
2017-12-21T07:39:01.818Z,4.3
2017-12-21T07:40:21.578Z,4.5
2017-12-21T07:41:41.293Z,4.6
2017-12-21T07:43:01.032Z,4.4
2017-12-21T07:44:25.811Z,4.6
2017-12-21T07:45:45.540Z,4.7
2017-12-21T07:47:12.911Z,4.6
2017-12-21T07:48:35.189Z,4.7
2017-12-21T07:49:59.985Z,4.6
2017-12-21T07:51:29.850Z,4.8
2017-12-21T07:52:49.551Z,4.8
2017-12-21T07:54:09.267Z,4.9
2017-12-21T07:55:31.574Z,5
2017-12-21T07:56:51.333Z,4.5
2017-12-21T07:58:11.084Z,4.9
2017-12-21T07:59:30.815Z,4.9
2017-12-21T08:00:53.068Z,4.4
2017-12-21T08:02:12.820Z,4.5
2017-12-21T08:03:35.073Z,4.7
2017-12-21T08:04:54.774Z,4.8
2017-12-21T08:06:14.483Z,4.9
2017-12-21T08:07:34.289Z,4.6
2017-12-21T08:08:56.527Z,4.6
2017-12-21T08:10:21.330Z,4.8
2017-12-21T08:11:41.075Z,5.3
2017-12-21T08:13:00.832Z,5.3
2017-12-21T08:14:25.637Z,5.3
2017-12-21T08:15:50.417Z,5.1
2017-12-21T08:17:10.113Z,5.1
2017-12-21T08:18:29.887Z,5.5
2017-12-21T08:20:02.275Z,5.5
2017-12-21T08:21:27.039Z,5.5
2017-12-21T08:22:46.879Z,5.5
2017-12-21T08:24:06.601Z,5.5
2017-12-21T08:25:26.316Z,5.2
2017-12-21T08:26:46.061Z,5.3
2017-12-21T08:28:05.787Z,5.6
2017-12-21T08:29:40.723Z,5.7
2017-12-21T08:31:00.421Z,5.2
2017-12-21T08:32:20.183Z,5.5
2017-12-21T08:33:39.885Z,5.6
2017-12-21T08:35:07.252Z,5.9
2017-12-21T08:36:26.958Z,5.9
2017-12-21T08:37:46.717Z,5.4
2017-12-21T08:39:09.000Z,5.2
2017-12-21T08:40:31.268Z,5.3
2017-12-21T08:41:50.978Z,5.4
2017-12-21T08:43:10.733Z,5.4
2017-12-21T08:44:45.615Z,5.6
2017-12-21T08:46:10.416Z,5
2017-12-21T08:47:35.213Z,5.2
2017-12-21T08:48:57.508Z,5.6
2017-12-21T08:50:19.736Z,5.5
2017-12-21T08:51:44.531Z,5.5
2017-12-21T08:53:04.250Z,5.5
2017-12-21T08:54:26.496Z,5.3
2017-12-21T08:55:48.721Z,5.6
2017-12-21T08:57:08.421Z,5.6
2017-12-21T08:58:28.135Z,5.4
2017-12-21T08:59:47.879Z,5.7
2017-12-21T09:01:22.798Z,5.7
2017-12-21T09:02:45.048Z,5.5
2017-12-21T09:04:04.747Z,5.7
2017-12-21T09:05:24.441Z,5.3
2017-12-21T09:06:44.189Z,5.8
2017-12-21T09:08:11.582Z,5.8
2017-12-21T09:09:31.301Z,5.9
2017-12-21T09:10:56.072Z,5.9
2017-12-21T09:12:18.346Z,5.8
2017-12-21T09:13:38.112Z,5.4
2017-12-21T09:14:57.850Z,5.4
2017-12-21T09:16:22.641Z,5.4
2017-12-21T09:17:49.933Z,5.2
2017-12-21T09:19:09.677Z,5.7
2017-12-21T09:20:29.372Z,5.6
2017-12-21T09:21:56.653Z,5.7
2017-12-21T09:23:16.375Z,5.2
2017-12-21T09:24:36.118Z,5.7
2017-12-21T09:25:58.409Z,5.9
2017-12-21T09:27:28.243Z,5.7
2017-12-21T09:28:47.940Z,5.8
2017-12-21T09:30:10.193Z,5.7
2017-12-21T09:31:29.949Z,5.7
2017-12-21T09:32:52.228Z,5.7
2017-12-21T09:34:14.453Z,5.6
2017-12-21T09:35:34.188Z,5
2017-12-21T09:36:56.456Z,5
2017-12-21T09:38:16.172Z,5.5
2017-12-21T09:39:38.492Z,5.3
2017-12-21T09:40:58.216Z,5.5
2017-12-21T09:42:20.444Z,5.3
2017-12-21T09:43:40.196Z,5.7
2017-12-21T09:44:59.892Z,5.6
2017-12-21T09:46:34.812Z,5.6
2017-12-21T09:47:54.506Z,5
2017-12-21T09:49:16.740Z,5.4
2017-12-21T09:50:39.021Z,5.5
2017-12-21T09:52:01.283Z,5.6
2017-12-21T09:53:28.575Z,5.5
2017-12-21T09:54:50.812Z,5.6
2017-12-21T09:56:13.079Z,5.6
2017-12-21T09:57:32.850Z,5.6
2017-12-21T09:58:52.597Z,5.5
2017-12-21T10:00:12.415Z,5.6
2017-12-21T10:01:32.201Z,5.3
2017-12-21T10:03:04.637Z,5.2
2017-12-21T10:04:29.437Z,5.5
2017-12-21T10:05:51.666Z,5.4
2017-12-21T10:07:24.073Z,5.4
2017-12-21T10:08:43.821Z,5.5
2017-12-21T10:10:03.569Z,5.4
2017-12-21T10:11:23.268Z,5.3
2017-12-21T10:12:45.519Z,5.7
2017-12-21T10:14:05.234Z,5.7
2017-12-21T10:15:24.962Z,5.3
2017-12-21T10:16:44.677Z,5.7
2017-12-21T10:18:04.432Z,5.7
2017-12-21T10:19:29.245Z,5.7
2017-12-21T10:20:48.952Z,5.7
2017-12-21T10:22:08.719Z,5.7
2017-12-21T10:23:33.539Z,5.6
2017-12-21T10:24:55.774Z,5.1
2017-12-21T10:26:25.624Z,5.5
2017-12-21T10:27:50.390Z,5.6
2017-12-21T10:29:12.659Z,5.6
2017-12-21T10:30:34.954Z,5.3
2017-12-21T10:32:19.954Z,5.3
2017-12-21T10:33:44.707Z,5.4
2017-12-21T10:35:04.400Z,5.6
2017-12-21T10:36:29.182Z,5.7
2017-12-21T10:37:48.933Z,5.6
2017-12-21T10:39:21.266Z,5.4
2017-12-21T10:40:56.204Z,5.3
2017-12-21T10:42:15.951Z,5.2
2017-12-21T10:43:38.229Z,5.3
2017-12-21T10:44:57.958Z,5.2
2017-12-21T10:46:17.667Z,5.2
2017-12-21T10:47:37.418Z,5.2
2017-12-21T10:49:09.827Z,5.2
2017-12-21T10:50:29.522Z,5.1
2017-12-21T10:51:49.293Z,4.9
2017-12-21T10:53:19.134Z,5.3
2017-12-21T10:54:43.899Z,5.1
2017-12-21T10:56:03.615Z,4.6
2017-12-21T10:57:23.364Z,5
2017-12-21T10:58:43.100Z,5.1
2017-12-21T11:00:02.856Z,5
2017-12-21T11:01:25.089Z,5
2017-12-21T11:02:47.341Z,5
2017-12-21T11:04:07.148Z,5.1
2017-12-21T11:05:29.385Z,5
2017-12-21T11:06:54.142Z,5
2017-12-21T11:08:13.839Z,5
2017-12-21T11:09:33.595Z,4.9
2017-12-21T11:11:00.880Z,5
2017-12-21T11:12:20.631Z,4.6
2017-12-21T11:13:42.917Z,4.6
2017-12-21T11:15:05.164Z,4.6
2017-12-21T11:16:24.898Z,4.8
2017-12-21T11:17:47.150Z,4.9
2017-12-21T11:19:09.394Z,4.9
2017-12-21T11:20:39.241Z,4.8
2017-12-21T11:21:58.939Z,4.6
2017-12-21T11:23:21.227Z,4.7
2017-12-21T11:24:43.465Z,4.8
2017-12-21T11:26:03.233Z,4.8
2017-12-21T11:27:25.491Z,4.9
2017-12-21T11:28:47.755Z,4.8
2017-12-21T11:30:20.144Z,4.7
2017-12-21T11:31:42.434Z,4.8
2017-12-21T11:33:07.272Z,4.8
2017-12-21T11:34:27.002Z,4.8
2017-12-21T11:35:46.722Z,4.9
2017-12-21T11:37:08.989Z,5
2017-12-21T11:38:28.731Z,4.8
2017-12-21T11:39:48.464Z,4.9
2017-12-21T11:41:08.180Z,4.8
2017-12-21T11:42:30.543Z,4.8
2017-12-21T11:43:50.310Z,4.7
2017-12-21T11:45:30.284Z,4.7
2017-12-21T11:46:50.036Z,4.8
2017-12-21T11:48:09.738Z,4.8
2017-12-21T11:49:32.015Z,4.9
2017-12-21T11:50:59.331Z,4.8
2017-12-21T11:52:19.033Z,4.8
2017-12-21T11:53:38.768Z,4.8
2017-12-21T11:54:58.525Z,4.8
2017-12-21T11:56:18.290Z,4.4
2017-12-21T11:57:40.524Z,4.4
2017-12-21T11:59:02.799Z,4.9
2017-12-21T12:00:22.498Z,4.8
2017-12-21T12:01:47.270Z,4.9
2017-12-21T12:03:07.013Z,5
2017-12-21T12:04:26.790Z,5
2017-12-21T12:05:49.031Z,5
2017-12-21T12:07:21.425Z,5
2017-12-21T12:08:43.655Z,5.1
2017-12-21T12:10:13.545Z,4.7
2017-12-21T12:11:33.252Z,5
2017-12-21T12:12:52.961Z,5
2017-12-21T12:14:12.666Z,4.8
2017-12-21T12:15:34.943Z,4.9
2017-12-21T12:16:54.690Z,4.8
2017-12-21T12:18:16.950Z,4.9
2017-12-21T12:19:49.293Z,5
2017-12-21T12:21:09.022Z,5
2017-12-21T12:22:38.896Z,4.9
2017-12-21T12:24:08.749Z,4.9
2017-12-21T12:25:31.025Z,4.9
2017-12-21T12:26:50.799Z,4.6
2017-12-21T12:28:10.559Z,4.7
2017-12-21T12:29:30.305Z,4.7
2017-12-21T12:30:50.008Z,4.4
2017-12-21T12:32:12.348Z,5
2017-12-21T12:33:34.661Z,4.9
2017-12-21T12:34:54.415Z,4.8
2017-12-21T12:36:16.746Z,4.9
2017-12-21T12:37:39.004Z,5
2017-12-21T12:38:58.767Z,5
2017-12-21T12:40:18.540Z,4.9
2017-12-21T12:41:43.439Z,4.9
2017-12-21T12:43:15.854Z,5
2017-12-21T12:44:35.595Z,4.4
2017-12-21T12:45:55.388Z,4.9
2017-12-21T12:47:20.217Z,5
2017-12-21T12:48:42.512Z,4.6
2017-12-21T12:50:02.211Z,4.9
2017-12-21T12:51:24.460Z,5
2017-12-21T12:52:44.169Z,5
2017-12-21T12:54:03.936Z,5
2017-12-21T12:55:23.706Z,5.1
2017-12-21T12:56:56.061Z,5.2
2017-12-21T12:58:23.359Z,5.3
2017-12-21T12:59:43.097Z,5.3
2017-12-21T13:01:02.839Z,5.3
2017-12-21T13:02:25.089Z,5.2
2017-12-21T13:03:49.856Z,5.2
2017-12-21T13:05:09.626Z,5.3
2017-12-21T13:06:39.432Z,5.3
2017-12-21T13:08:01.744Z,5.3
2017-12-21T13:09:21.483Z,5.2
2017-12-21T13:10:41.288Z,5.2
2017-12-21T13:12:00.999Z,5.1
2017-12-21T13:13:20.686Z,5.1
2017-12-21T13:14:40.409Z,5.2
2017-12-21T13:16:02.751Z,5.2
2017-12-21T13:17:27.530Z,5.3
2017-12-21T13:18:49.780Z,5.4
2017-12-21T13:20:09.530Z,5.4
2017-12-21T13:21:36.847Z,5.4
2017-12-21T13:22:56.588Z,5.4
2017-12-21T13:24:26.488Z,5.4
2017-12-21T13:25:46.209Z,5.4
2017-12-21T13:27:11.034Z,5.5
2017-12-21T13:28:30.736Z,5.5
2017-12-21T13:29:50.550Z,5.5
2017-12-21T13:31:12.807Z,5.5
2017-12-21T13:32:32.542Z,5.5
2017-12-21T13:33:54.795Z,5.6
2017-12-21T13:35:17.026Z,5.5
2017-12-21T13:36:36.763Z,5.5
2017-12-21T13:37:56.526Z,5.5
2017-12-21T13:39:21.306Z,5.5
2017-12-21T13:40:51.205Z,5.6
2017-12-21T13:42:10.919Z,5.6
2017-12-21T13:43:30.627Z,5.5
2017-12-21T13:44:55.404Z,5.5
2017-12-21T13:46:15.150Z,5.4
2017-12-21T13:47:37.384Z,5.4
2017-12-21T13:49:02.147Z,5.3
2017-12-21T13:50:24.455Z,5.3
2017-12-21T13:51:56.881Z,5.3
2017-12-21T13:53:16.637Z,5.4
2017-12-21T13:54:36.429Z,5.4
2017-12-21T13:56:01.213Z,5.6
2017-12-21T13:57:20.974Z,5.6
2017-12-21T13:58:40.682Z,5.7
2017-12-21T14:00:00.484Z,5.7
2017-12-21T14:01:22.736Z,5.7
2017-12-21T14:02:42.440Z,5.7
2017-12-21T14:04:07.266Z,5.7
2017-12-21T14:05:26.988Z,5.7
2017-12-21T14:06:46.700Z,5.7
2017-12-21T14:08:06.430Z,5.7
2017-12-21T14:09:31.240Z,5.7
2017-12-21T14:10:51.014Z,5.7
2017-12-21T14:12:18.313Z,5.7
2017-12-21T14:13:53.205Z,5.7
2017-12-21T14:15:17.968Z,5.7
2017-12-21T14:16:37.713Z,5.9
2017-12-21T14:17:57.423Z,5.9
2017-12-21T14:19:27.315Z,5.9
2017-12-21T14:20:49.551Z,5.9
2017-12-21T14:22:16.885Z,6
2017-12-21T14:23:44.162Z,5.9
2017-12-21T14:25:03.872Z,5.9
2017-12-21T14:26:26.172Z,5.9
2017-12-21T14:27:51.013Z,6
2017-12-21T14:29:15.812Z,5.9
2017-12-21T14:30:38.049Z,5.9
2017-12-21T14:32:07.906Z,6
2017-12-21T14:33:27.617Z,5.9
2017-12-21T14:34:47.364Z,5.9
2017-12-21T14:36:17.230Z,5.9
2017-12-21T14:37:36.940Z,5.9
2017-12-21T14:38:56.672Z,5.8
2017-12-21T14:40:18.903Z,5.8
2017-12-21T14:41:38.629Z,5.8
2017-12-21T14:42:58.363Z,5.8
2017-12-21T14:44:18.129Z,5.8
2017-12-21T14:45:37.831Z,5.8
2017-12-21T14:47:02.609Z,5.8
2017-12-21T14:48:29.943Z,5.7
2017-12-21T14:49:49.665Z,5.7
2017-12-21T14:51:14.424Z,5.6
2017-12-21T14:52:34.159Z,5.7
2017-12-21T14:53:53.867Z,5.7
2017-12-21T14:55:16.160Z,5.7
2017-12-21T14:56:38.441Z,5.7
2017-12-21T14:57:58.134Z,5.7
2017-12-21T14:59:20.373Z,5.7
2017-12-21T15:00:40.112Z,5.7
2017-12-21T15:02:04.919Z,5.7
2017-12-21T15:03:24.627Z,5.7
2017-12-21T15:04:44.394Z,5.7
2017-12-21T15:06:09.173Z,5.8
2017-12-21T15:07:28.876Z,5.7
2017-12-21T15:08:48.582Z,5.8
2017-12-21T15:10:10.870Z,5.8
2017-12-21T15:11:38.240Z,5.9
2017-12-21T15:13:00.506Z,5.9
2017-12-21T15:14:25.267Z,5.9
2017-12-21T15:15:44.964Z,5.9
2017-12-21T15:17:04.686Z,5.9
2017-12-21T15:18:31.990Z,5.9
2017-12-21T15:19:51.734Z,5.9
2017-12-21T15:21:11.445Z,5.9
2017-12-21T15:22:33.718Z,5.9
2017-12-21T15:23:53.426Z,6
2017-12-21T15:25:15.677Z,6
2017-12-21T15:26:40.515Z,6
2017-12-21T15:28:00.245Z,6
2017-12-21T15:29:19.979Z,6
2017-12-21T15:30:39.676Z,6
2017-12-21T15:32:01.953Z,6
2017-12-21T15:33:21.683Z,5.9
2017-12-21T15:34:41.389Z,5.9
2017-12-21T15:36:01.149Z,5.9
2017-12-21T15:37:20.926Z,5.9
2017-12-21T15:38:40.693Z,5.9
2017-12-21T15:40:00.411Z,5.9
2017-12-21T15:41:22.630Z,5.9
2017-12-21T15:42:42.386Z,5.9
2017-12-21T15:44:02.107Z,5.9
2017-12-21T15:45:21.823Z,5.9
2017-12-21T15:46:54.189Z,5.9
2017-12-21T15:48:13.930Z,5.8
2017-12-21T15:49:36.266Z,5.8
2017-12-21T15:51:01.065Z,5.8
2017-12-21T15:52:20.792Z,5.9
2017-12-21T15:53:48.087Z,5.9
2017-12-21T15:55:07.853Z,5.9
2017-12-21T15:56:27.568Z,5.8
2017-12-21T15:57:49.812Z,5.8
2017-12-21T15:59:12.060Z,5.8
2017-12-21T16:00:34.382Z,5.8
2017-12-21T16:01:54.141Z,5.8
2017-12-21T16:03:13.885Z,5.8
2017-12-21T16:04:33.589Z,5.8
2017-12-21T16:05:58.384Z,5.8
2017-12-21T16:07:20.640Z,5.9
2017-12-21T16:08:42.881Z,5.9
2017-12-21T16:10:02.601Z,5.9
2017-12-21T16:11:24.859Z,5.9
2017-12-21T16:12:49.626Z,5.9
2017-12-21T16:14:11.915Z,6
2017-12-21T16:15:34.162Z,5.9
2017-12-21T16:16:53.892Z,6
2017-12-21T16:18:13.588Z,6
2017-12-21T16:19:43.438Z,5.9
2017-12-21T16:21:10.784Z,6
2017-12-21T16:22:30.605Z,6
2017-12-21T16:23:52.828Z,6
2017-12-21T16:25:17.585Z,6
2017-12-21T16:26:39.812Z,6
2017-12-21T16:27:59.581Z,6
2017-12-21T16:29:19.307Z,6
2017-12-21T16:30:41.541Z,6
2017-12-21T16:32:11.405Z,5.9
2017-12-21T16:33:31.172Z,6
2017-12-21T16:34:50.952Z,6
2017-12-21T16:36:10.690Z,6
2017-12-21T16:37:30.411Z,6
2017-12-21T16:38:50.218Z,5.9
2017-12-21T16:40:09.922Z,5.9
2017-12-21T16:41:34.760Z,5.9
2017-12-21T16:42:57.000Z,5.9
2017-12-21T16:44:19.254Z,5.8
2017-12-21T16:45:41.551Z,5.8
2017-12-21T16:47:03.806Z,5.8
2017-12-21T16:48:26.043Z,5.8
2017-12-21T16:49:53.362Z,5.9
2017-12-21T16:51:15.622Z,5.9
2017-12-21T16:52:35.383Z,5.9
2017-12-21T16:53:55.158Z,5.8
2017-12-21T16:55:19.981Z,5.7
2017-12-21T16:56:44.782Z,5.8
2017-12-21T16:58:04.478Z,5.8
2017-12-21T16:59:26.751Z,5.8
2017-12-21T17:00:46.471Z,5.9
2017-12-21T17:02:13.832Z,5.9
2017-12-21T17:03:33.609Z,6
2017-12-21T17:04:55.857Z,5.9
2017-12-21T17:06:15.621Z,6
2017-12-21T17:07:35.384Z,6
2017-12-21T17:09:00.184Z,6
2017-12-21T17:10:19.885Z,5.9
2017-12-21T17:11:39.698Z,6
2017-12-21T17:13:04.507Z,5.9
2017-12-21T17:14:24.232Z,5.9
2017-12-21T17:15:46.469Z,6
2017-12-21T17:17:06.239Z,5.9
2017-12-21T17:18:25.970Z,6
2017-12-21T17:19:45.709Z,6
2017-12-21T17:21:13.041Z,6
2017-12-21T17:22:35.370Z,6
2017-12-21T17:24:07.794Z,5.9
2017-12-21T17:25:30.066Z,6
2017-12-21T17:26:49.766Z,6
2017-12-21T17:28:12.080Z,6
2017-12-21T17:29:31.784Z,5.9
2017-12-21T17:30:54.019Z,5.7
2017-12-21T17:32:13.726Z,5.7
2017-12-21T17:33:38.581Z,5.5
2017-12-21T17:35:00.873Z,5.8
2017-12-21T17:36:20.637Z,5.8
2017-12-21T17:37:40.381Z,5.7
2017-12-21T17:39:05.176Z,5.7
2017-12-21T17:40:27.491Z,5.8
2017-12-21T17:41:47.200Z,5.9
2017-12-21T17:43:09.437Z,5.9
2017-12-21T17:44:29.169Z,5.9
2017-12-21T17:45:53.929Z,5.9
2017-12-21T17:47:16.188Z,5.9
2017-12-21T17:48:35.913Z,5.8
2017-12-21T17:49:55.695Z,5.8
2017-12-21T17:51:15.447Z,5.8
2017-12-21T17:52:40.232Z,5.8
2017-12-21T17:53:59.980Z,5.7
2017-12-21T17:55:19.701Z,5.8
2017-12-21T17:56:42.036Z,5.8
2017-12-21T17:58:09.338Z,5.6
2017-12-21T17:59:29.100Z,5.6
2017-12-21T18:00:51.377Z,5.7
2017-12-21T18:02:11.143Z,5.6
2017-12-21T18:03:30.889Z,5.8
2017-12-21T18:04:50.637Z,5.7
2017-12-21T18:06:12.975Z,5.8
2017-12-21T18:07:32.681Z,5.9
2017-12-21T18:08:54.942Z,5.9
2017-12-21T18:10:19.778Z,5.9
2017-12-21T18:11:39.499Z,5.9
2017-12-21T18:12:59.233Z,5.9
2017-12-21T18:14:24.014Z,5.9
2017-12-21T18:15:43.733Z,5.9
2017-12-21T18:17:03.445Z,5.9
2017-12-21T18:18:43.445Z,5.9
2017-12-21T18:20:03.156Z,5.9
2017-12-21T18:21:25.456Z,6
2017-12-21T18:22:45.219Z,5.9
2017-12-21T18:24:04.946Z,6
2017-12-21T18:25:34.813Z,6.1
2017-12-21T18:26:54.545Z,6
2017-12-21T18:28:14.357Z,6
2017-12-21T18:29:39.139Z,6
2017-12-21T18:30:58.892Z,6
2017-12-21T18:32:26.226Z,5.9
2017-12-21T18:33:45.956Z,5.9
2017-12-21T18:35:10.741Z,5.9
2017-12-21T18:36:32.991Z,5.9
2017-12-21T18:38:02.827Z,5.9
2017-12-21T18:39:25.126Z,5.9
2017-12-21T18:40:44.862Z,5.9
2017-12-21T18:42:04.582Z,5.9
2017-12-21T18:43:24.359Z,5.9
2017-12-21T18:44:44.078Z,5.8
2017-12-21T18:46:06.326Z,5.7
2017-12-21T18:47:28.590Z,5.7
2017-12-21T18:48:50.835Z,5.7
2017-12-21T18:50:13.096Z,5.6
2017-12-21T18:51:32.876Z,5.6
2017-12-21T18:52:52.595Z,5.6
2017-12-21T18:54:12.367Z,5.5
2017-12-21T18:55:32.079Z,5.4
2017-12-21T18:56:51.823Z,5.3
2017-12-21T18:58:14.121Z,5.4
2017-12-21T18:59:33.906Z,5.3
2017-12-21T19:01:01.218Z,5.3
2017-12-21T19:02:20.978Z,5.2
2017-12-21T19:03:48.333Z,5.1
2017-12-21T19:05:10.598Z,5